createdAt,value
2018-10-03T00:03:36.713Z,75.30
2018-10-03T00:07:40.394Z,74.50
2018-10-03T00:11:44.127Z,74.60
2018-10-03T00:15:47.929Z,74.60
2018-10-03T00:19:51.672Z,75.00
2018-10-03T00:23:55.377Z,74.80
2018-10-03T00:27:59.065Z,75.00
2018-10-03T00:32:02.796Z,75.20
2018-10-03T00:36:09.389Z,74.90
2018-10-03T00:40:13.150Z,75.30
2018-10-03T00:44:16.866Z,74.80
2018-10-03T00:48:20.662Z,74.70
2018-10-03T00:52:24.372Z,75.30
2018-10-03T00:56:28.326Z,75.00
2018-10-03T01:00:32.109Z,75.20
2018-10-03T01:04:35.818Z,75.30
2018-10-03T01:08:39.638Z,75.40
2018-10-03T01:12:44.173Z,75.40
2018-10-03T01:16:47.905Z,75.00
2018-10-03T01:20:51.670Z,74.90
2018-10-03T01:24:55.464Z,74.60
2018-10-03T01:28:59.162Z,75.10
2018-10-03T01:33:03.045Z,75.00
2018-10-03T01:37:06.794Z,75.10
2018-10-03T01:41:10.525Z,75.20
2018-10-03T01:45:14.275Z,75.00
2018-10-03T01:49:17.962Z,75.10
2018-10-03T01:53:21.681Z,75.10
2018-10-03T01:57:25.457Z,75.60
2018-10-03T02:01:29.181Z,75.00
2018-10-03T02:05:32.891Z,74.90
2018-10-03T02:09:36.613Z,74.90
2018-10-03T02:13:40.291Z,74.80
2018-10-03T02:17:44.033Z,74.70
2018-10-03T02:21:47.757Z,74.70
2018-10-03T02:25:51.473Z,74.00
2018-10-03T02:29:55.233Z,74.60
2018-10-03T02:33:58.945Z,74.50
2018-10-03T02:38:02.670Z,74.60
2018-10-03T02:42:06.432Z,74.60
2018-10-03T02:46:10.157Z,74.50
2018-10-03T02:50:13.876Z,74.80
2018-10-03T02:54:17.722Z,74.70
2018-10-03T02:58:21.425Z,75.00
2018-10-03T03:02:25.132Z,75.00
2018-10-03T03:06:28.892Z,75.10
2018-10-03T03:10:32.652Z,75.90
2018-10-03T03:14:36.635Z,75.10
2018-10-03T03:18:40.353Z,74.90
2018-10-03T03:22:44.080Z,75.10
2018-10-03T03:26:47.796Z,75.10
2018-10-03T03:30:51.552Z,74.90
2018-10-03T03:34:55.256Z,74.90
2018-10-03T03:38:58.960Z,75.00
2018-10-03T03:43:02.661Z,75.00
2018-10-03T03:47:06.455Z,74.90
2018-10-03T03:51:10.144Z,74.70
2018-10-03T03:55:13.865Z,74.80
2018-10-03T03:59:17.752Z,75.00
2018-10-03T04:03:21.463Z,74.00
2018-10-03T04:07:25.179Z,74.60
2018-10-03T04:11:28.954Z,74.80
2018-10-03T04:15:32.659Z,74.80
2018-10-03T04:19:36.365Z,74.80
2018-10-03T04:23:40.078Z,74.70
2018-10-03T04:27:43.814Z,73.90
2018-10-03T04:31:47.537Z,74.50
2018-10-03T04:35:51.379Z,74.70
2018-10-03T04:39:55.162Z,74.60
2018-10-03T04:43:58.868Z,74.70
2018-10-03T04:48:03.673Z,74.70
2018-10-03T04:52:07.387Z,74.50
2018-10-03T04:56:11.076Z,74.50
2018-10-03T05:00:14.886Z,74.30
2018-10-03T05:04:18.644Z,74.40
2018-10-03T05:08:22.352Z,74.40
2018-10-03T05:12:26.062Z,74.30
2018-10-03T05:16:29.797Z,73.90
2018-10-03T05:20:33.569Z,74.50
2018-10-03T05:24:37.309Z,74.50
2018-10-03T05:28:41.024Z,74.50
2018-10-03T05:32:44.778Z,74.70
2018-10-03T05:36:48.457Z,74.70
2018-10-03T05:40:52.227Z,74.60
2018-10-03T05:44:55.961Z,74.20
2018-10-03T05:48:59.665Z,74.10
2018-10-03T05:53:03.390Z,74.00
2018-10-03T05:57:07.080Z,74.10
2018-10-03T06:01:10.881Z,74.00
2018-10-03T06:05:14.594Z,74.00
2018-10-03T06:09:18.432Z,74.00
2018-10-03T06:13:22.178Z,74.00
2018-10-03T06:17:25.883Z,74.00
2018-10-03T06:23:40.740Z,73.20
2018-10-03T06:28:03.580Z,72.60
2018-10-03T06:32:07.359Z,73.40
2018-10-03T06:36:11.128Z,73.60
2018-10-03T06:40:14.868Z,73.60
2018-10-03T06:44:18.602Z,73.80
2018-10-03T06:48:22.375Z,73.90
2018-10-03T06:52:26.095Z,73.90
2018-10-03T06:56:29.886Z,73.70
2018-10-03T07:00:33.595Z,73.60
2018-10-03T07:04:37.288Z,73.60
2018-10-03T07:08:41.249Z,73.70
2018-10-03T07:12:44.994Z,73.70
2018-10-03T07:16:48.705Z,72.50
2018-10-03T07:20:52.520Z,72.60
2018-10-03T07:24:56.237Z,73.00
2018-10-03T07:28:59.933Z,73.20
2018-10-03T07:33:03.683Z,72.90
2018-10-03T07:37:07.379Z,72.60
2018-10-03T07:41:11.161Z,72.20
2018-10-03T07:45:14.942Z,73.00
2018-10-03T07:49:18.627Z,72.20
2018-10-03T07:53:22.339Z,72.10
2018-10-03T07:57:26.236Z,71.80
2018-10-03T08:01:29.958Z,71.60
2018-10-03T08:05:33.644Z,71.60
2018-10-03T08:09:37.463Z,71.50
2018-10-03T08:13:41.159Z,70.60
2018-10-03T08:17:44.873Z,70.40
2018-10-03T08:21:48.655Z,70.00
2018-10-03T08:25:52.368Z,70.40
2018-10-03T08:29:56.049Z,70.80
2018-10-03T08:33:59.797Z,69.70
2018-10-03T08:38:03.607Z,69.70
2018-10-03T08:42:07.378Z,69.70
2018-10-03T08:46:11.103Z,69.20
2018-10-03T08:50:14.868Z,68.70
2018-10-03T08:54:18.597Z,69.80
2018-10-03T08:58:22.429Z,68.70
2018-10-03T09:02:26.147Z,68.40
2018-10-03T09:06:29.854Z,67.50
2018-10-03T09:10:33.618Z,68.50
2018-10-03T09:14:37.488Z,67.70
2018-10-03T09:18:41.291Z,69.50
2018-10-03T09:22:45.056Z,68.30
2018-10-03T09:26:48.772Z,68.70
2018-10-03T09:30:52.536Z,66.90
2018-10-03T09:34:56.309Z,66.30
2018-10-03T09:39:00.044Z,66.70
2018-10-03T09:43:03.759Z,66.70
2018-10-03T09:47:07.529Z,67.40
2018-10-03T09:51:11.401Z,67.80
2018-10-03T09:55:15.152Z,67.00
2018-10-03T09:59:18.857Z,68.20
2018-10-03T10:03:22.871Z,67.80
2018-10-03T10:07:27.032Z,68.10
2018-10-03T10:11:30.830Z,66.00
2018-10-03T10:15:34.501Z,67.50
2018-10-03T10:19:38.291Z,67.40
2018-10-03T10:23:42.012Z,67.20
2018-10-03T10:27:45.734Z,67.00
2018-10-03T10:31:49.467Z,66.80
2018-10-03T10:35:53.223Z,67.40
2018-10-03T10:39:57.055Z,66.30
2018-10-03T10:44:01.440Z,66.50
2018-10-03T10:48:05.141Z,66.10
2018-10-03T10:52:08.847Z,66.10
2018-10-03T10:56:12.562Z,66.20
2018-10-03T11:00:16.293Z,66.10
2018-10-03T11:04:20.246Z,64.10
2018-10-03T11:08:23.934Z,65.00
2018-10-03T11:12:27.662Z,64.70
2018-10-03T11:16:37.838Z,65.90
2018-10-03T11:20:41.542Z,64.40
2018-10-03T11:24:45.465Z,65.30
2018-10-03T11:28:49.043Z,65.10
2018-10-03T11:32:52.781Z,65.90
2018-10-03T11:36:56.528Z,65.40
2018-10-03T11:41:00.253Z,65.40
2018-10-03T11:45:04.058Z,65.90
2018-10-03T11:49:07.752Z,65.00
2018-10-03T11:53:11.458Z,65.40
2018-10-03T11:57:15.172Z,64.40
2018-10-03T12:01:18.908Z,66.10
2018-10-03T12:05:22.624Z,63.90
2018-10-03T12:09:26.369Z,62.90
2018-10-03T12:13:30.165Z,63.20
2018-10-03T12:17:33.871Z,61.60
2018-10-03T12:21:37.606Z,62.50
2018-10-03T12:25:41.303Z,63.90
2018-10-03T12:29:44.989Z,61.10
2018-10-03T12:33:48.807Z,61.10
2018-10-03T12:37:52.521Z,61.20
2018-10-03T12:41:56.245Z,61.70
2018-10-03T12:45:59.966Z,61.10
2018-10-03T12:50:03.693Z,62.50
2018-10-03T12:54:07.661Z,61.10
2018-10-03T12:58:11.377Z,59.80
2018-10-03T13:02:15.111Z,61.20
2018-10-03T13:06:18.864Z,60.80
2018-10-03T13:10:22.701Z,60.40
2018-10-03T13:14:26.430Z,59.60
2018-10-03T13:18:30.192Z,61.10
2018-10-03T13:22:33.896Z,60.40
2018-10-03T13:26:37.720Z,60.10
2018-10-03T13:30:41.470Z,59.60
2018-10-03T13:34:45.204Z,59.40
2018-10-03T13:38:49.002Z,59.80
2018-10-03T13:42:52.747Z,60.10
2018-10-03T13:46:56.508Z,59.40
2018-10-03T13:51:00.303Z,59.80
2018-10-03T13:55:04.162Z,60.30
2018-10-03T13:59:07.890Z,59.50
2018-10-03T14:03:11.656Z,58.60
2018-10-03T14:07:15.332Z,59.10
2018-10-03T14:11:19.049Z,58.40
2018-10-03T14:15:22.813Z,58.60
2018-10-03T14:19:26.519Z,59.30
2018-10-03T14:23:30.208Z,58.10
2018-10-03T14:27:33.897Z,58.30
2018-10-03T14:31:37.606Z,58.00
2018-10-03T14:35:41.377Z,58.60
2018-10-03T14:39:45.141Z,58.80
2018-10-03T14:43:48.875Z,58.90
2018-10-03T14:47:52.597Z,59.00
2018-10-03T14:51:56.358Z,59.40
2018-10-03T14:56:00.069Z,59.20
2018-10-03T15:00:03.854Z,60.20
2018-10-03T15:04:07.705Z,60.30
2018-10-03T15:08:11.386Z,60.60
2018-10-03T15:12:15.085Z,59.80
2018-10-03T15:16:18.809Z,60.20
2018-10-03T15:20:22.577Z,59.70
2018-10-03T15:24:26.284Z,59.10
2018-10-03T15:28:29.955Z,59.90
2018-10-03T15:32:33.651Z,60.90
2018-10-03T15:36:37.461Z,59.70
2018-10-03T15:40:41.217Z,59.60
2018-10-03T15:44:45.011Z,60.00
2018-10-03T15:48:48.740Z,60.00
2018-10-03T15:52:52.461Z,59.60
2018-10-03T15:56:56.236Z,60.30
2018-10-03T16:01:00.047Z,60.40
2018-10-03T16:05:03.826Z,60.60
2018-10-03T16:09:08.047Z,60.20
2018-10-03T16:13:11.784Z,60.90
2018-10-03T16:17:15.485Z,61.60
2018-10-03T16:21:19.197Z,61.90
2018-10-03T16:25:22.923Z,61.90
2018-10-03T16:29:26.581Z,62.10
2018-10-03T16:33:30.393Z,62.10
2018-10-03T16:37:34.145Z,61.90
2018-10-03T16:41:37.868Z,61.10
2018-10-03T16:45:41.589Z,59.80
2018-10-03T16:49:45.293Z,60.70
2018-10-03T16:53:49.014Z,60.20
2018-10-03T16:57:52.804Z,60.90
2018-10-03T17:01:56.525Z,60.90
2018-10-03T17:06:00.333Z,61.20
2018-10-03T17:10:04.947Z,61.60
2018-10-03T17:14:30.144Z,61.70
2018-10-03T17:18:33.873Z,62.00
2018-10-03T17:22:37.575Z,62.30
2018-10-03T17:26:41.349Z,62.30
2018-10-03T17:30:45.129Z,62.40
2018-10-03T17:34:48.852Z,62.50
2018-10-03T17:38:52.571Z,62.70
2018-10-03T17:42:56.336Z,62.70
2018-10-03T17:47:00.069Z,62.90
2018-10-03T17:51:03.856Z,62.90
2018-10-03T17:55:07.642Z,63.00
2018-10-03T17:59:11.775Z,63.00
2018-10-03T18:03:15.477Z,63.00
2018-10-03T18:07:19.191Z,63.20
2018-10-03T18:11:22.942Z,63.30
2018-10-03T18:15:26.713Z,63.30
2018-10-03T18:19:30.453Z,63.40
2018-10-03T18:23:34.520Z,63.50
2018-10-03T18:27:38.248Z,63.60
2018-10-03T18:31:42.006Z,63.60
2018-10-03T18:35:45.751Z,63.70
2018-10-03T18:39:49.462Z,63.80
2018-10-03T18:43:53.145Z,63.90
2018-10-03T18:47:56.871Z,63.90
2018-10-03T18:52:00.635Z,63.80
2018-10-03T18:56:04.413Z,63.80
2018-10-03T19:00:08.227Z,63.80
2018-10-03T19:04:11.885Z,63.80
2018-10-03T19:08:15.940Z,63.70
2018-10-03T19:12:19.776Z,63.80
2018-10-03T19:16:23.437Z,63.80
2018-10-03T19:20:27.157Z,63.80
2018-10-03T19:24:30.847Z,63.80
2018-10-03T19:28:34.580Z,63.80
2018-10-03T19:32:38.525Z,63.90
2018-10-03T19:36:42.267Z,64.00
2018-10-03T19:40:45.947Z,63.90
2018-10-03T19:44:49.669Z,64.00
2018-10-03T19:48:53.392Z,63.30
2018-10-03T19:52:57.118Z,63.90
2018-10-03T19:57:00.861Z,63.90
2018-10-03T20:01:04.560Z,64.10
2018-10-03T20:05:08.338Z,64.00
2018-10-03T20:09:12.042Z,64.10
2018-10-03T20:13:15.779Z,64.00
2018-10-03T20:17:19.529Z,64.10
2018-10-03T20:21:23.254Z,64.10
2018-10-03T20:25:26.933Z,64.10
2018-10-03T20:29:30.696Z,64.10
2018-10-03T20:33:34.495Z,64.10
2018-10-03T20:37:38.196Z,64.10
2018-10-03T20:41:41.994Z,64.20
2018-10-03T20:45:45.699Z,64.20
2018-10-03T20:49:49.423Z,64.20
2018-10-03T20:53:53.155Z,64.20
2018-10-03T20:57:56.878Z,64.20
2018-10-03T21:02:00.633Z,64.20
2018-10-03T21:06:04.411Z,64.30
2018-10-03T21:10:08.161Z,64.30
2018-10-03T21:14:11.948Z,64.30
2018-10-03T21:18:15.707Z,64.30
2018-10-03T21:22:19.412Z,64.30
2018-10-03T21:26:23.129Z,64.40
2018-10-03T21:30:26.998Z,64.40
2018-10-03T21:34:30.723Z,64.40
2018-10-03T21:38:34.528Z,64.50
2018-10-03T21:42:38.284Z,64.50
2018-10-03T21:46:42.016Z,64.50
2018-10-03T21:50:45.874Z,64.60
2018-10-03T21:54:49.604Z,64.60
2018-10-03T21:58:53.357Z,64.50
2018-10-03T22:02:57.081Z,64.60
2018-10-03T22:07:00.792Z,64.60
2018-10-03T22:11:04.514Z,63.80
2018-10-03T22:15:08.193Z,64.70
2018-10-03T22:19:11.984Z,64.70
2018-10-03T22:23:15.753Z,64.90
2018-10-03T22:27:19.493Z,64.90
2018-10-03T22:31:23.197Z,65.00
2018-10-03T22:35:26.937Z,65.10
2018-10-03T22:39:30.641Z,65.10
2018-10-03T22:43:34.538Z,65.20
2018-10-03T22:47:38.244Z,65.30
2018-10-03T22:51:41.985Z,65.30
2018-10-03T22:55:45.730Z,65.40
2018-10-03T22:59:49.444Z,65.60
2018-10-03T23:03:53.738Z,65.50
2018-10-03T23:07:57.436Z,65.70
2018-10-03T23:12:01.125Z,65.80
2018-10-03T23:16:04.849Z,65.80
2018-10-03T23:20:08.273Z,66.00
2018-10-03T23:24:11.989Z,66.00
2018-10-03T23:28:15.688Z,66.50
2018-10-03T23:32:19.353Z,66.00
2018-10-03T23:36:23.081Z,66.10
2018-10-03T23:40:26.798Z,66.10
2018-10-03T23:44:30.499Z,66.10
2018-10-03T23:48:34.194Z,66.40
2018-10-03T23:52:37.993Z,66.40
2018-10-03T23:56:41.686Z,66.40
